createdAt,value
2022-09-15T00:12:30.356Z,100.00
2022-09-15T00:14:57.154Z,100.00
2022-09-15T00:17:24.038Z,100.00
2022-09-15T00:19:50.815Z,100.00
2022-09-15T00:22:19.859Z,100.00
2022-09-15T00:24:49.224Z,100.00
2022-09-15T00:27:16.029Z,100.00
2022-09-15T00:29:44.410Z,100.00
2022-09-15T00:32:13.428Z,100.00
2022-09-15T00:34:54.188Z,100.00
2022-09-15T00:37:27.041Z,100.00
2022-09-15T00:39:58.964Z,100.00
2022-09-15T00:42:25.969Z,100.00
2022-09-15T00:45:03.459Z,100.00
2022-09-15T00:47:41.238Z,100.00
2022-09-15T00:50:17.080Z,100.00
2022-09-15T00:52:57.248Z,100.00
2022-09-15T00:56:01.483Z,100.00
2022-09-15T02:07:20.661Z,100.00
2022-09-15T02:10:06.862Z,100.00
2022-09-15T02:12:44.797Z,100.00
2022-09-15T02:15:25.053Z,100.00
2022-09-15T04:42:07.851Z,100.00
2022-09-15T04:52:41.571Z,100.00
2022-09-15T04:57:47.029Z,100.00
2022-09-15T05:00:14.909Z,100.00
2022-09-15T05:02:41.901Z,100.00
2022-09-15T05:05:08.992Z,100.00
2022-09-15T05:07:35.742Z,100.00
2022-09-15T05:10:02.556Z,100.00
2022-09-15T05:12:29.324Z,100.00
2022-09-15T05:14:57.440Z,100.00
2022-09-15T05:17:26.798Z,100.00
2022-09-15T05:19:53.763Z,100.00
2022-09-15T05:22:20.673Z,100.00
2022-09-15T05:24:47.438Z,100.00
2022-09-15T05:27:14.162Z,100.00
2022-09-15T05:29:40.907Z,100.00
2022-09-15T05:32:09.026Z,100.00
2022-09-15T05:34:35.823Z,100.00
2022-09-15T05:37:03.007Z,100.00
2022-09-15T05:39:29.734Z,100.00
2022-09-15T05:41:56.496Z,100.00
2022-09-15T05:44:23.224Z,100.00
2022-09-15T05:46:50.221Z,100.00
2022-09-15T05:49:18.423Z,100.00
2022-09-15T05:51:45.197Z,100.00
2022-09-15T05:54:11.978Z,100.00
2022-09-15T05:56:38.768Z,100.00
2022-09-15T05:59:05.629Z,100.00
2022-09-15T06:01:32.789Z,100.00
2022-09-15T06:04:00.037Z,100.00
2022-09-15T06:06:28.207Z,100.00
2022-09-15T06:08:58.976Z,100.00
2022-09-15T06:11:28.301Z,100.00
2022-09-15T06:13:55.691Z,100.00
2022-09-15T06:16:23.952Z,100.00
2022-09-15T06:18:52.344Z,100.00
2022-09-15T06:21:21.354Z,100.00
2022-09-15T06:23:55.355Z,100.00
2022-09-15T06:26:24.874Z,100.00
2022-09-15T06:28:53.910Z,100.00
2022-09-15T06:31:21.890Z,100.00
2022-09-15T06:33:53.064Z,100.00
2022-09-15T06:36:21.775Z,100.00
2022-09-15T06:38:48.774Z,100.00
2022-09-15T06:41:16.711Z,100.00
2022-09-15T06:43:45.502Z,100.00
2022-09-15T06:46:18.747Z,100.00
2022-09-15T06:48:53.729Z,100.00
2022-09-15T06:51:23.094Z,100.00
2022-09-15T06:56:18.775Z,100.00
2022-09-15T06:58:50.570Z,100.00
2022-09-15T07:01:22.631Z,100.00
2022-09-15T07:03:49.924Z,100.00
2022-09-15T07:06:17.592Z,100.00
2022-09-15T07:08:45.436Z,100.00
2022-09-15T07:11:13.177Z,100.00
2022-09-15T07:13:40.568Z,100.00
2022-09-15T07:16:11.624Z,100.00
2022-09-15T07:18:43.004Z,100.00
2022-09-15T07:21:13.163Z,100.00
2022-09-15T07:23:40.602Z,100.00
2022-09-15T07:26:09.971Z,100.00
2022-09-15T07:28:37.523Z,100.00
2022-09-15T07:37:52.428Z,100.00
2022-09-15T07:40:22.172Z,100.00
2022-09-15T07:42:49.058Z,100.00
2022-09-15T07:45:15.894Z,100.00
2022-09-15T07:50:47.035Z,100.00
2022-09-15T07:58:35.833Z,100.00
2022-09-15T08:01:03.764Z,100.00
2022-09-15T08:03:31.155Z,100.00
2022-09-15T08:05:58.856Z,100.00
2022-09-15T08:11:18.398Z,98.98
2022-09-15T08:13:55.312Z,96.91
2022-09-15T08:16:24.529Z,91.67
2022-09-15T08:21:30.119Z,91.54
2022-09-15T08:23:58.251Z,91.86
2022-09-15T08:26:26.403Z,91.74
2022-09-15T08:28:53.306Z,94.16
2022-09-15T08:31:24.250Z,87.76
2022-09-15T08:33:54.064Z,89.78
2022-09-15T08:36:21.583Z,90.64
2022-09-15T08:38:48.759Z,93.00
2022-09-15T08:41:20.125Z,95.01
2022-09-15T08:43:52.386Z,95.35
2022-09-15T08:46:26.420Z,91.35
2022-09-15T08:49:02.722Z,88.13
2022-09-15T08:51:34.952Z,83.92
2022-09-15T08:54:07.395Z,87.72
2022-09-15T08:56:37.055Z,86.49
2022-09-15T08:59:04.305Z,83.52
2022-09-15T09:01:50.335Z,85.53
2022-09-15T09:04:52.844Z,83.30
2022-09-15T09:07:34.195Z,82.67
2022-09-15T09:10:08.114Z,84.66
2022-09-15T09:12:53.300Z,83.15
2022-09-15T09:15:26.877Z,83.86
2022-09-15T09:18:06.919Z,84.84
2022-09-15T09:20:47.754Z,80.74
2022-09-15T09:23:17.887Z,81.94
2022-09-15T09:25:45.680Z,80.15
2022-09-15T09:28:24.116Z,79.04
2022-09-15T09:30:50.899Z,75.02
2022-09-15T09:33:28.255Z,74.94
2022-09-15T09:35:58.180Z,76.69
2022-09-15T09:38:27.500Z,74.10
2022-09-15T09:40:58.582Z,73.89
2022-09-15T09:43:30.112Z,71.82
2022-09-15T09:45:57.118Z,67.64
2022-09-15T09:48:27.432Z,68.03
2022-09-15T09:50:55.214Z,66.69
2022-09-15T09:53:27.671Z,69.36
2022-09-15T09:55:55.923Z,67.32
2022-09-15T09:58:25.986Z,70.13
2022-09-15T10:00:53.219Z,70.27
2022-09-15T10:03:21.810Z,78.47
2022-09-15T10:06:04.784Z,84.80
2022-09-15T10:08:32.045Z,87.33
2022-09-15T10:11:04.706Z,93.53
2022-09-15T10:13:32.849Z,95.31
2022-09-15T10:16:02.451Z,96.91
2022-09-15T10:18:33.437Z,95.78
2022-09-15T10:21:03.442Z,94.39
2022-09-15T10:23:32.017Z,96.47
2022-09-15T10:26:21.038Z,96.90
2022-09-15T10:29:12.615Z,95.32
2022-09-15T10:31:39.821Z,91.50
2022-09-15T10:34:28.375Z,93.21
2022-09-15T10:37:06.412Z,88.96
2022-09-15T10:39:48.350Z,88.19
2022-09-15T10:42:23.987Z,92.61
2022-09-15T10:45:03.753Z,92.56
2022-09-15T10:47:42.750Z,91.19
2022-09-15T10:50:16.098Z,88.93
2022-09-15T10:53:01.025Z,89.34
2022-09-15T10:55:52.282Z,84.69
2022-09-15T10:58:39.840Z,85.67
2022-09-15T11:01:34.603Z,83.44
2022-09-15T11:04:27.796Z,80.88
2022-09-15T11:07:03.876Z,80.89
2022-09-15T11:09:34.713Z,80.83
2022-09-15T11:12:27.096Z,77.53
2022-09-15T11:15:14.696Z,75.71
2022-09-15T11:17:55.883Z,71.75
2022-09-15T11:20:50.031Z,68.59
2022-09-15T11:23:21.541Z,70.81
2022-09-15T11:25:57.415Z,65.16
2022-09-15T11:28:29.873Z,66.83
2022-09-15T11:31:02.486Z,69.26
2022-09-15T11:33:34.756Z,63.75
2022-09-15T11:36:06.790Z,65.32
2022-09-15T11:38:40.614Z,65.94
2022-09-15T11:41:24.205Z,64.14
2022-09-15T11:44:16.121Z,61.70
2022-09-15T11:47:15.686Z,59.29
2022-09-15T11:49:47.541Z,61.81
2022-09-15T11:52:27.343Z,63.83
2022-09-15T11:55:01.060Z,65.36
2022-09-15T11:57:34.972Z,64.47
2022-09-15T12:00:07.064Z,65.17
2022-09-15T12:02:42.613Z,64.53
2022-09-15T12:05:13.816Z,64.33
2022-09-15T12:07:48.382Z,66.05
2022-09-15T12:10:20.579Z,63.28
2022-09-15T12:12:51.503Z,61.27
2022-09-15T12:15:20.362Z,61.11
2022-09-15T12:17:54.408Z,63.81
2022-09-15T12:20:26.434Z,60.36
2022-09-15T12:23:02.402Z,61.87
2022-09-15T12:25:34.582Z,61.34
2022-09-15T12:28:37.165Z,61.25
2022-09-15T12:31:25.514Z,57.15
2022-09-15T12:33:57.839Z,60.35
2022-09-15T12:36:46.977Z,60.29
2022-09-15T12:39:24.442Z,61.21
2022-09-15T12:41:53.404Z,63.34
2022-09-15T12:44:29.482Z,61.35
2022-09-15T12:46:59.129Z,65.12
2022-09-15T12:49:30.786Z,64.48
2022-09-15T12:51:58.917Z,63.06
2022-09-15T12:54:29.692Z,62.02
2022-09-15T12:56:57.623Z,61.24
2022-09-15T12:59:27.125Z,64.33
2022-09-15T13:01:55.187Z,65.26
2022-09-15T13:04:53.030Z,67.20
2022-09-15T13:07:34.218Z,69.38
2022-09-15T13:10:27.122Z,70.21
2022-09-15T13:13:10.948Z,67.38
2022-09-15T13:15:43.084Z,67.57
2022-09-15T13:18:12.233Z,67.77
2022-09-15T13:20:43.300Z,67.61
2022-09-15T13:23:15.602Z,67.72
2022-09-15T13:25:45.822Z,69.24
2022-09-15T13:31:03.152Z,69.39
2022-09-15T13:40:07.234Z,65.70
2022-09-15T13:42:51.531Z,65.63
2022-09-15T13:45:43.812Z,66.13
2022-09-15T13:48:45.434Z,64.35
2022-09-15T13:51:19.541Z,64.56
2022-09-15T13:53:51.782Z,65.29
2022-09-15T13:56:24.319Z,67.21
2022-09-15T13:58:55.095Z,64.39
2022-09-15T14:01:25.827Z,65.67
2022-09-15T14:03:56.552Z,66.44
2022-09-15T14:06:26.090Z,69.42
2022-09-15T14:08:55.947Z,68.59
2022-09-15T14:11:26.756Z,68.18
2022-09-15T14:13:55.209Z,69.53
2022-09-15T14:16:34.275Z,68.51
2022-09-15T14:19:17.150Z,68.45
2022-09-15T14:21:49.142Z,67.35
2022-09-15T14:24:21.051Z,65.57
2022-09-15T14:26:48.855Z,64.58
2022-09-15T14:29:20.548Z,64.97
2022-09-15T14:31:48.722Z,66.08
2022-09-15T14:34:20.731Z,67.63
2022-09-15T14:37:03.490Z,65.37
2022-09-15T14:39:30.590Z,63.62
2022-09-15T14:47:20.401Z,64.01
2022-09-15T14:49:49.039Z,64.44
2022-09-15T14:52:28.836Z,62.81
2022-09-15T14:55:00.488Z,62.91
2022-09-15T14:57:31.316Z,61.97
2022-09-15T15:00:01.832Z,63.95
2022-09-15T15:02:38.915Z,65.53
2022-09-15T15:05:11.042Z,67.20
2022-09-15T15:07:39.019Z,69.53
2022-09-15T15:10:14.363Z,73.66
2022-09-15T15:12:43.704Z,73.86
2022-09-15T15:15:12.607Z,75.40
2022-09-15T15:17:43.098Z,72.20
2022-09-15T15:20:17.859Z,74.42
2022-09-15T15:22:46.191Z,75.06
2022-09-15T15:25:28.520Z,73.32
2022-09-15T15:27:56.743Z,72.97
2022-09-15T15:30:35.853Z,71.21
2022-09-15T15:33:04.693Z,70.68
2022-09-15T15:35:35.809Z,73.31
2022-09-15T15:38:06.305Z,72.45
2022-09-15T15:40:35.510Z,70.37
2022-09-15T15:43:06.103Z,72.21
2022-09-15T15:45:34.728Z,71.48
2022-09-15T15:48:03.011Z,72.41
2022-09-15T15:50:32.447Z,70.96
2022-09-15T15:53:02.553Z,73.00
2022-09-15T15:55:37.951Z,71.93
2022-09-15T15:58:05.033Z,72.22
2022-09-15T16:00:39.097Z,70.85
2022-09-15T16:03:06.407Z,71.18
2022-09-15T16:05:34.516Z,69.79
2022-09-15T16:10:44.820Z,71.35
2022-09-15T16:13:14.441Z,72.29
2022-09-15T16:15:41.747Z,71.73
2022-09-15T16:18:08.676Z,72.40
2022-09-15T16:20:35.449Z,71.55
2022-09-15T16:23:03.104Z,73.19
2022-09-15T16:25:36.647Z,74.46
2022-09-15T16:28:04.950Z,74.56
2022-09-15T16:30:32.310Z,74.31
2022-09-15T16:32:59.604Z,74.18
2022-09-15T16:35:37.388Z,75.70
2022-09-15T16:38:06.391Z,75.95
2022-09-15T16:40:33.504Z,75.71
2022-09-15T16:43:00.665Z,75.99
2022-09-15T16:45:35.266Z,75.33
2022-09-15T16:48:05.119Z,78.62
2022-09-15T16:53:17.842Z,75.94
2022-09-15T16:55:46.706Z,77.02
2022-09-15T16:58:15.246Z,78.70
2022-09-15T17:00:45.143Z,78.21
2022-09-15T17:03:16.525Z,80.05
2022-09-15T17:05:48.557Z,78.47
2022-09-15T17:08:17.085Z,77.68
2022-09-15T17:10:44.487Z,78.92
2022-09-15T17:15:42.333Z,83.47
2022-09-15T17:18:13.375Z,83.62
2022-09-15T17:20:40.238Z,83.90
2022-09-15T17:23:17.873Z,82.84
2022-09-15T17:25:51.350Z,81.84
2022-09-15T17:28:21.140Z,85.38
2022-09-15T17:30:49.357Z,85.87
2022-09-15T17:33:19.190Z,85.31
2022-09-15T17:35:46.923Z,85.13
2022-09-15T17:38:14.358Z,85.57
2022-09-15T17:40:41.526Z,86.17
2022-09-15T17:43:14.165Z,86.51
2022-09-15T17:45:41.110Z,84.10
2022-09-15T17:48:09.309Z,84.92
2022-09-15T17:50:38.415Z,86.12
2022-09-15T17:53:12.756Z,87.84
2022-09-15T17:55:40.381Z,87.78
2022-09-15T17:58:08.082Z,85.08
2022-09-15T18:00:37.016Z,87.96
2022-09-15T18:03:06.136Z,89.86
2022-09-15T18:05:35.106Z,89.15
2022-09-15T18:08:05.585Z,88.59
2022-09-15T18:10:34.302Z,88.83
2022-09-15T18:13:01.992Z,87.62
2022-09-15T18:15:31.554Z,87.70
2022-09-15T18:18:02.847Z,89.59
2022-09-15T18:20:32.072Z,88.39
2022-09-15T18:22:59.251Z,87.90
2022-09-15T18:25:30.999Z,89.74
2022-09-15T18:27:58.283Z,89.94
2022-09-15T18:30:27.199Z,91.98
2022-09-15T18:32:54.445Z,86.39
2022-09-15T18:35:22.168Z,91.34
2022-09-15T18:37:54.246Z,90.93
2022-09-15T18:40:21.345Z,92.68
2022-09-15T18:42:49.624Z,91.22
2022-09-15T18:45:18.320Z,91.98
2022-09-15T18:47:48.812Z,90.14
2022-09-15T18:50:17.508Z,88.21
2022-09-15T18:52:44.736Z,89.22
2022-09-15T18:55:15.358Z,92.83
2022-09-15T18:57:42.964Z,92.58
2022-09-15T19:00:14.144Z,91.76
2022-09-15T19:02:41.192Z,90.91
2022-09-15T19:05:11.451Z,92.40
2022-09-15T19:07:38.904Z,91.77
2022-09-15T19:10:06.972Z,91.40
2022-09-15T19:12:35.655Z,93.86
2022-09-15T19:15:03.067Z,94.22
2022-09-15T19:17:31.499Z,97.18
2022-09-15T19:20:00.406Z,100.00
2022-09-15T19:22:27.356Z,100.00
2022-09-15T19:24:54.462Z,100.00
2022-09-15T19:27:21.402Z,100.00
2022-09-15T19:29:48.385Z,100.00
2022-09-15T19:32:18.334Z,100.00
2022-09-15T19:34:47.758Z,100.00
2022-09-15T19:37:18.692Z,100.00
2022-09-15T19:39:46.688Z,100.00
2022-09-15T19:44:47.819Z,100.00
2022-09-15T19:47:14.972Z,100.00
2022-09-15T19:49:41.759Z,100.00
2022-09-15T19:52:09.948Z,100.00
2022-09-15T19:54:36.770Z,100.00
2022-09-15T19:57:04.116Z,100.00
2022-09-15T19:59:31.990Z,100.00
2022-09-15T20:01:59.740Z,100.00
2022-09-15T20:04:26.960Z,100.00
2022-09-15T20:06:53.756Z,100.00
2022-09-15T20:09:22.252Z,100.00
2022-09-15T20:11:49.275Z,100.00
2022-09-15T20:14:16.485Z,100.00
2022-09-15T20:16:43.469Z,100.00
2022-09-15T20:19:10.392Z,100.00
2022-09-15T20:21:49.850Z,100.00
2022-09-15T20:24:18.288Z,100.00
2022-09-15T20:26:46.503Z,100.00
2022-09-15T20:29:13.392Z,100.00
2022-09-15T20:31:40.834Z,100.00
2022-09-15T20:34:07.649Z,100.00
2022-09-15T20:36:36.577Z,100.00
2022-09-15T20:39:06.768Z,99.44
2022-09-15T20:41:33.642Z,98.50
2022-09-15T20:44:02.170Z,97.61
2022-09-15T20:46:29.406Z,99.91
2022-09-15T20:48:56.281Z,98.42
2022-09-15T20:51:31.514Z,96.49
2022-09-15T20:54:00.157Z,96.59
2022-09-15T20:56:28.657Z,97.23
2022-09-15T20:58:57.049Z,94.71
2022-09-15T21:01:26.927Z,94.77
2022-09-15T21:03:55.363Z,94.87
2022-09-15T21:06:24.052Z,95.03
2022-09-15T21:08:51.101Z,94.51
2022-09-15T21:11:20.253Z,94.53
2022-09-15T21:13:48.218Z,95.05
2022-09-15T21:16:17.412Z,96.04
2022-09-15T21:18:46.416Z,94.04
2022-09-15T21:21:15.331Z,94.10
2022-09-15T21:23:43.972Z,92.95
2022-09-15T21:26:12.885Z,93.31
2022-09-15T21:28:40.201Z,91.36
2022-09-15T21:31:09.484Z,88.21
2022-09-15T21:33:37.289Z,86.04
2022-09-15T21:36:09.477Z,86.61
2022-09-15T21:38:37.556Z,82.88
2022-09-15T21:41:06.416Z,82.19
2022-09-15T21:43:35.947Z,78.21
2022-09-15T21:46:04.900Z,77.45
2022-09-15T21:48:32.694Z,79.17
2022-09-15T21:51:00.033Z,77.64
2022-09-15T21:53:28.969Z,74.47
2022-09-15T21:55:56.655Z,79.45
2022-09-15T21:58:26.093Z,77.46
2022-09-15T22:00:53.232Z,78.37
2022-09-15T22:03:20.856Z,75.36
2022-09-15T22:05:48.188Z,77.75
2022-09-15T22:08:16.259Z,77.02
2022-09-15T22:10:44.536Z,77.98
2022-09-15T22:13:12.795Z,77.95
2022-09-15T22:15:39.588Z,79.34
2022-09-15T22:18:07.397Z,79.91
2022-09-15T22:20:37.155Z,77.31
2022-09-15T22:23:11.396Z,76.30
2022-09-15T22:25:45.068Z,80.95
2022-09-15T22:28:13.301Z,82.19
2022-09-15T22:30:40.462Z,84.79
2022-09-15T22:33:07.208Z,84.42
2022-09-15T22:35:33.981Z,85.28
2022-09-15T22:38:00.777Z,87.15
2022-09-15T22:40:29.548Z,87.59
2022-09-15T22:42:56.324Z,94.48
2022-09-15T22:45:24.590Z,95.91
2022-09-15T22:47:51.344Z,97.42
2022-09-15T22:50:18.106Z,98.38
2022-09-15T22:52:45.002Z,98.14
2022-09-15T22:55:11.741Z,98.77
2022-09-15T22:57:39.645Z,99.52
2022-09-15T23:00:08.400Z,98.71
2022-09-15T23:02:36.567Z,100.00
2022-09-15T23:05:03.639Z,100.00
2022-09-15T23:07:30.403Z,100.00
2022-09-15T23:09:58.327Z,100.00
2022-09-15T23:12:25.309Z,100.00
2022-09-15T23:14:52.070Z,100.00
2022-09-15T23:17:18.919Z,100.00
2022-09-15T23:19:47.251Z,100.00
2022-09-15T23:22:14.249Z,100.00
2022-09-15T23:24:41.000Z,100.00
2022-09-15T23:27:07.797Z,100.00
2022-09-15T23:29:34.579Z,100.00
2022-09-15T23:32:01.747Z,100.00
2022-09-15T23:34:28.512Z,100.00
2022-09-15T23:36:57.101Z,100.00
2022-09-15T23:39:24.198Z,100.00
2022-09-15T23:41:50.946Z,100.00
2022-09-15T23:44:17.710Z,100.00
2022-09-15T23:46:44.639Z,100.00
2022-09-15T23:49:14.433Z,100.00
2022-09-15T23:51:44.814Z,100.00
2022-09-15T23:54:13.098Z,100.00
2022-09-15T23:56:39.931Z,100.00
2022-09-15T23:59:07.081Z,100.00
